sensor_id;sensor_type;location;lat;lon;timestamp;temperature;humidity
2100;DHT22;1055;48.854;9.302;2023-08-08T00:01:24;14.30;99.90
2100;DHT22;1055;48.854;9.302;2023-08-08T00:03:50;14.20;99.90
2100;DHT22;1055;48.854;9.302;2023-08-08T00:06:15;14.20;99.90
2100;DHT22;1055;48.854;9.302;2023-08-08T00:08:41;14.30;99.90
2100;DHT22;1055;48.854;9.302;2023-08-08T00:11:07;14.20;99.90
2100;DHT22;1055;48.854;9.302;2023-08-08T00:13:32;14.00;99.90
2100;DHT22;1055;48.854;9.302;2023-08-08T00:15:58;13.90;99.90
2100;DHT22;1055;48.854;9.302;2023-08-08T00:18:23;13.90;99.90
2100;DHT22;1055;48.854;9.302;2023-08-08T00:20:49;13.80;99.90
2100;DHT22;1055;48.854;9.302;2023-08-08T00:23:15;13.90;99.90
2100;DHT22;1055;48.854;9.302;2023-08-08T00:25:40;14.10;99.90
2100;DHT22;1055;48.854;9.302;2023-08-08T00:28:06;14.00;99.90
2100;DHT22;1055;48.854;9.302;2023-08-08T00:30:32;13.90;99.90
2100;DHT22;1055;48.854;9.302;2023-08-08T00:32:57;13.90;99.90
2100;DHT22;1055;48.854;9.302;2023-08-08T00:35:23;14.00;99.90
2100;DHT22;1055;48.854;9.302;2023-08-08T00:37:49;14.00;99.90
2100;DHT22;1055;48.854;9.302;2023-08-08T00:40:15;14.00;99.90
2100;DHT22;1055;48.854;9.302;2023-08-08T00:42:41;14.00;99.90
2100;DHT22;1055;48.854;9.302;2023-08-08T00:45:07;14.10;99.90
2100;DHT22;1055;48.854;9.302;2023-08-08T00:47:33;14.00;99.90
2100;DHT22;1055;48.854;9.302;2023-08-08T00:50:00;14.10;99.90
2100;DHT22;1055;48.854;9.302;2023-08-08T00:52:26;14.10;99.90
2100;DHT22;1055;48.854;9.302;2023-08-08T00:54:52;14.10;99.90
2100;DHT22;1055;48.854;9.302;2023-08-08T00:57:18;14.20;99.90
2100;DHT22;1055;48.854;9.302;2023-08-08T00:59:44;14.20;99.90
2100;DHT22;1055;48.854;9.302;2023-08-08T01:02:10;14.20;99.90
2100;DHT22;1055;48.854;9.302;2023-08-08T01:04:36;14.20;99.90
2100;DHT22;1055;48.854;9.302;2023-08-08T01:07:08;14.30;99.90
2100;DHT22;1055;48.854;9.302;2023-08-08T01:09:41;14.30;99.90
2100;DHT22;1055;48.854;9.302;2023-08-08T01:12:11;14.20;99.90
2100;DHT22;1055;48.854;9.302;2023-08-08T01:14:38;14.20;99.90
2100;DHT22;1055;48.854;9.302;2023-08-08T01:17:05;14.20;99.90
2100;DHT22;1055;48.854;9.302;2023-08-08T01:19:32;14.40;99.90
2100;DHT22;1055;48.854;9.302;2023-08-08T01:22:05;14.60;99.90
2100;DHT22;1055;48.854;9.302;2023-08-08T01:24:32;14.60;99.90
2100;DHT22;1055;48.854;9.302;2023-08-08T01:27:02;14.60;99.90
2100;DHT22;1055;48.854;9.302;2023-08-08T01:29:28;14.60;99.90
2100;DHT22;1055;48.854;9.302;2023-08-08T01:31:54;14.70;99.90
2100;DHT22;1055;48.854;9.302;2023-08-08T01:34:20;14.80;99.90
2100;DHT22;1055;48.854;9.302;2023-08-08T01:36:59;14.70;99.90
2100;DHT22;1055;48.854;9.302;2023-08-08T01:39:30;14.70;99.90
2100;DHT22;1055;48.854;9.302;2023-08-08T01:41:56;14.80;99.90
2100;DHT22;1055;48.854;9.302;2023-08-08T01:44:24;15.00;99.90
2100;DHT22;1055;48.854;9.302;2023-08-08T01:46:51;14.80;99.90
2100;DHT22;1055;48.854;9.302;2023-08-08T01:49:17;14.70;99.90
2100;DHT22;1055;48.854;9.302;2023-08-08T01:51:42;14.50;99.90
2100;DHT22;1055;48.854;9.302;2023-08-08T01:54:08;14.40;99.90
2100;DHT22;1055;48.854;9.302;2023-08-08T01:56:34;14.40;99.90
2100;DHT22;1055;48.854;9.302;2023-08-08T01:59:00;14.50;99.90
2100;DHT22;1055;48.854;9.302;2023-08-08T02:01:25;14.40;99.90
2100;DHT22;1055;48.854;9.302;2023-08-08T02:03:51;14.40;99.90
2100;DHT22;1055;48.854;9.302;2023-08-08T02:06:17;14.50;99.90
2100;DHT22;1055;48.854;9.302;2023-08-08T02:08:42;14.60;99.90
2100;DHT22;1055;48.854;9.302;2023-08-08T02:11:08;14.80;99.90
2100;DHT22;1055;48.854;9.302;2023-08-08T02:13:33;14.90;99.90
2100;DHT22;1055;48.854;9.302;2023-08-08T02:15:59;14.80;99.90
2100;DHT22;1055;48.854;9.302;2023-08-08T02:18:25;15.10;99.90
2100;DHT22;1055;48.854;9.302;2023-08-08T02:20:50;15.00;99.90
2100;DHT22;1055;48.854;9.302;2023-08-08T02:23:16;15.00;99.90
2100;DHT22;1055;48.854;9.302;2023-08-08T02:25:41;15.00;99.90
2100;DHT22;1055;48.854;9.302;2023-08-08T02:28:07;15.10;99.90
2100;DHT22;1055;48.854;9.302;2023-08-08T02:30:32;14.90;99.90
2100;DHT22;1055;48.854;9.302;2023-08-08T02:32:58;14.90;99.90
2100;DHT22;1055;48.854;9.302;2023-08-08T02:35:24;14.80;99.90
2100;DHT22;1055;48.854;9.302;2023-08-08T02:37:49;14.90;99.90
2100;DHT22;1055;48.854;9.302;2023-08-08T02:40:15;14.80;99.90
2100;DHT22;1055;48.854;9.302;2023-08-08T02:42:40;14.70;99.90
2100;DHT22;1055;48.854;9.302;2023-08-08T02:45:06;14.60;99.90
2100;DHT22;1055;48.854;9.302;2023-08-08T02:47:32;14.60;99.90
2100;DHT22;1055;48.854;9.302;2023-08-08T02:49:58;14.50;99.90
2100;DHT22;1055;48.854;9.302;2023-08-08T02:52:23;14.60;99.90
2100;DHT22;1055;48.854;9.302;2023-08-08T02:54:49;14.50;99.90
2100;DHT22;1055;48.854;9.302;2023-08-08T02:57:16;14.60;99.90
2100;DHT22;1055;48.854;9.302;2023-08-08T02:59:41;14.60;99.90
2100;DHT22;1055;48.854;9.302;2023-08-08T03:02:07;14.60;99.90
2100;DHT22;1055;48.854;9.302;2023-08-08T03:04:32;14.50;99.90
2100;DHT22;1055;48.854;9.302;2023-08-08T03:06:58;14.50;99.90
2100;DHT22;1055;48.854;9.302;2023-08-08T03:09:24;14.50;99.90
2100;DHT22;1055;48.854;9.302;2023-08-08T03:11:49;14.60;99.90
2100;DHT22;1055;48.854;9.302;2023-08-08T03:14:15;14.50;99.90
2100;DHT22;1055;48.854;9.302;2023-08-08T03:16:41;14.50;99.90
2100;DHT22;1055;48.854;9.302;2023-08-08T03:19:06;14.40;99.90
2100;DHT22;1055;48.854;9.302;2023-08-08T03:21:32;14.50;99.90
2100;DHT22;1055;48.854;9.302;2023-08-08T03:23:57;14.40;99.90
2100;DHT22;1055;48.854;9.302;2023-08-08T03:26:23;14.30;99.90
2100;DHT22;1055;48.854;9.302;2023-08-08T03:28:49;14.30;99.90
2100;DHT22;1055;48.854;9.302;2023-08-08T03:31:16;14.20;99.90
2100;DHT22;1055;48.854;9.302;2023-08-08T03:33:43;14.20;99.90
2100;DHT22;1055;48.854;9.302;2023-08-08T03:36:09;14.10;99.90
2100;DHT22;1055;48.854;9.302;2023-08-08T03:38:34;14.10;99.90
2100;DHT22;1055;48.854;9.302;2023-08-08T03:41:01;14.30;99.90
2100;DHT22;1055;48.854;9.302;2023-08-08T03:43:26;14.10;99.90
2100;DHT22;1055;48.854;9.302;2023-08-08T03:45:52;14.10;99.90
2100;DHT22;1055;48.854;9.302;2023-08-08T03:48:17;14.10;99.90
2100;DHT22;1055;48.854;9.302;2023-08-08T03:50:43;14.20;99.90
2100;DHT22;1055;48.854;9.302;2023-08-08T03:53:09;14.20;99.90
2100;DHT22;1055;48.854;9.302;2023-08-08T03:55:34;14.30;99.90
2100;DHT22;1055;48.854;9.302;2023-08-08T03:58:00;14.20;99.90
2100;DHT22;1055;48.854;9.302;2023-08-08T04:00:25;14.20;99.90
2100;DHT22;1055;48.854;9.302;2023-08-08T04:02:51;14.30;99.90
2100;DHT22;1055;48.854;9.302;2023-08-08T04:05:17;14.30;99.90
2100;DHT22;1055;48.854;9.302;2023-08-08T04:07:42;14.30;99.90
2100;DHT22;1055;48.854;9.302;2023-08-08T04:10:08;14.40;99.90
2100;DHT22;1055;48.854;9.302;2023-08-08T04:12:34;14.50;99.90
2100;DHT22;1055;48.854;9.302;2023-08-08T04:14:59;14.60;99.90
2100;DHT22;1055;48.854;9.302;2023-08-08T04:17:25;14.60;99.90
2100;DHT22;1055;48.854;9.302;2023-08-08T04:19:50;14.70;99.90
2100;DHT22;1055;48.854;9.302;2023-08-08T04:22:16;14.70;99.90
2100;DHT22;1055;48.854;9.302;2023-08-08T04:24:43;14.70;99.90
2100;DHT22;1055;48.854;9.302;2023-08-08T04:27:09;14.70;99.90
2100;DHT22;1055;48.854;9.302;2023-08-08T04:29:35;14.70;99.90
2100;DHT22;1055;48.854;9.302;2023-08-08T04:32:01;14.60;99.90
2100;DHT22;1055;48.854;9.302;2023-08-08T04:34:27;14.60;99.90
2100;DHT22;1055;48.854;9.302;2023-08-08T04:36:53;14.70;99.90
2100;DHT22;1055;48.854;9.302;2023-08-08T04:39:18;14.70;99.90
2100;DHT22;1055;48.854;9.302;2023-08-08T04:41:44;14.70;99.90
2100;DHT22;1055;48.854;9.302;2023-08-08T04:44:09;14.60;99.90
2100;DHT22;1055;48.854;9.302;2023-08-08T04:46:35;14.60;99.90
2100;DHT22;1055;48.854;9.302;2023-08-08T04:49:01;14.60;99.90
2100;DHT22;1055;48.854;9.302;2023-08-08T04:51:26;14.60;99.90
2100;DHT22;1055;48.854;9.302;2023-08-08T04:53:52;14.50;99.90
2100;DHT22;1055;48.854;9.302;2023-08-08T04:56:17;14.60;99.90
2100;DHT22;1055;48.854;9.302;2023-08-08T04:58:43;14.60;99.90
2100;DHT22;1055;48.854;9.302;2023-08-08T05:01:09;14.60;99.90
2100;DHT22;1055;48.854;9.302;2023-08-08T05:03:39;14.70;99.90
2100;DHT22;1055;48.854;9.302;2023-08-08T05:06:05;14.60;99.90
2100;DHT22;1055;48.854;9.302;2023-08-08T05:08:30;14.70;99.90
2100;DHT22;1055;48.854;9.302;2023-08-08T05:10:56;14.50;99.90
2100;DHT22;1055;48.854;9.302;2023-08-08T05:13:22;14.40;99.90
2100;DHT22;1055;48.854;9.302;2023-08-08T05:15:47;14.50;99.90
2100;DHT22;1055;48.854;9.302;2023-08-08T05:18:13;14.40;99.90
2100;DHT22;1055;48.854;9.302;2023-08-08T05:20:38;14.40;99.90
2100;DHT22;1055;48.854;9.302;2023-08-08T05:23:04;14.40;99.90
2100;DHT22;1055;48.854;9.302;2023-08-08T05:25:30;14.40;99.90
2100;DHT22;1055;48.854;9.302;2023-08-08T05:27:55;14.60;99.90
2100;DHT22;1055;48.854;9.302;2023-08-08T05:30:21;14.60;99.90
2100;DHT22;1055;48.854;9.302;2023-08-08T05:32:47;14.60;99.90
2100;DHT22;1055;48.854;9.302;2023-08-08T05:35:13;14.70;99.90
2100;DHT22;1055;48.854;9.302;2023-08-08T05:37:38;14.80;99.90
2100;DHT22;1055;48.854;9.302;2023-08-08T05:40:05;14.90;99.90
2100;DHT22;1055;48.854;9.302;2023-08-08T05:42:32;15.00;99.90
2100;DHT22;1055;48.854;9.302;2023-08-08T05:44:57;15.10;99.90
2100;DHT22;1055;48.854;9.302;2023-08-08T05:47:23;15.10;99.90
2100;DHT22;1055;48.854;9.302;2023-08-08T05:49:49;15.20;99.90
2100;DHT22;1055;48.854;9.302;2023-08-08T05:52:14;15.20;99.90
2100;DHT22;1055;48.854;9.302;2023-08-08T05:54:40;15.20;99.90
2100;DHT22;1055;48.854;9.302;2023-08-08T05:57:06;15.20;99.90
2100;DHT22;1055;48.854;9.302;2023-08-08T05:59:32;15.30;99.90
2100;DHT22;1055;48.854;9.302;2023-08-08T06:01:58;15.30;99.90
2100;DHT22;1055;48.854;9.302;2023-08-08T06:04:24;15.30;99.90
2100;DHT22;1055;48.854;9.302;2023-08-08T06:06:50;15.40;99.90
2100;DHT22;1055;48.854;9.302;2023-08-08T06:09:16;15.50;99.90
2100;DHT22;1055;48.854;9.302;2023-08-08T06:11:42;15.50;99.90
2100;DHT22;1055;48.854;9.302;2023-08-08T06:14:08;15.60;99.90
2100;DHT22;1055;48.854;9.302;2023-08-08T06:16:33;15.60;99.90
2100;DHT22;1055;48.854;9.302;2023-08-08T06:18:59;15.70;99.90
2100;DHT22;1055;48.854;9.302;2023-08-08T06:21:25;15.70;99.90
2100;DHT22;1055;48.854;9.302;2023-08-08T06:23:50;15.80;99.90
2100;DHT22;1055;48.854;9.302;2023-08-08T06:26:18;16.00;99.90
2100;DHT22;1055;48.854;9.302;2023-08-08T06:28:44;15.90;99.90
2100;DHT22;1055;48.854;9.302;2023-08-08T06:31:09;16.00;99.90
2100;DHT22;1055;48.854;9.302;2023-08-08T06:33:35;16.10;99.90
2100;DHT22;1055;48.854;9.302;2023-08-08T06:36:02;16.10;99.90
2100;DHT22;1055;48.854;9.302;2023-08-08T06:38:28;16.10;99.90
2100;DHT22;1055;48.854;9.302;2023-08-08T06:40:54;16.10;99.90
2100;DHT22;1055;48.854;9.302;2023-08-08T06:43:21;16.20;99.90
2100;DHT22;1055;48.854;9.302;2023-08-08T06:45:47;16.30;99.90
2100;DHT22;1055;48.854;9.302;2023-08-08T06:48:13;16.40;99.90
2100;DHT22;1055;48.854;9.302;2023-08-08T06:50:38;16.50;99.90
2100;DHT22;1055;48.854;9.302;2023-08-08T06:53:04;16.50;99.90
2100;DHT22;1055;48.854;9.302;2023-08-08T06:55:31;16.70;99.90
2100;DHT22;1055;48.854;9.302;2023-08-08T06:57:56;16.70;99.90
2100;DHT22;1055;48.854;9.302;2023-08-08T07:00:22;16.70;99.90
2100;DHT22;1055;48.854;9.302;2023-08-08T07:02:47;16.80;99.90
2100;DHT22;1055;48.854;9.302;2023-08-08T07:05:13;16.90;99.90
2100;DHT22;1055;48.854;9.302;2023-08-08T07:07:39;17.00;99.90
2100;DHT22;1055;48.854;9.302;2023-08-08T07:10:05;17.10;99.90
2100;DHT22;1055;48.854;9.302;2023-08-08T07:12:32;17.00;99.90
2100;DHT22;1055;48.854;9.302;2023-08-08T07:14:57;17.20;99.90
2100;DHT22;1055;48.854;9.302;2023-08-08T07:17:23;17.20;99.90
2100;DHT22;1055;48.854;9.302;2023-08-08T07:19:48;17.20;99.90
2100;DHT22;1055;48.854;9.302;2023-08-08T07:22:14;17.20;99.90
2100;DHT22;1055;48.854;9.302;2023-08-08T07:24:40;17.30;99.90
2100;DHT22;1055;48.854;9.302;2023-08-08T07:27:06;17.30;99.90
2100;DHT22;1055;48.854;9.302;2023-08-08T07:29:31;17.40;99.90
2100;DHT22;1055;48.854;9.302;2023-08-08T07:31:57;17.30;99.90
2100;DHT22;1055;48.854;9.302;2023-08-08T07:34:23;17.30;99.90
2100;DHT22;1055;48.854;9.302;2023-08-08T07:36:50;17.30;99.90
2100;DHT22;1055;48.854;9.302;2023-08-08T07:39:15;17.40;99.90
2100;DHT22;1055;48.854;9.302;2023-08-08T07:41:41;17.50;99.90
2100;DHT22;1055;48.854;9.302;2023-08-08T07:44:07;17.50;99.90
2100;DHT22;1055;48.854;9.302;2023-08-08T07:46:32;17.60;99.90
2100;DHT22;1055;48.854;9.302;2023-08-08T07:48:58;17.60;99.90
2100;DHT22;1055;48.854;9.302;2023-08-08T07:51:28;17.70;99.90
2100;DHT22;1055;48.854;9.302;2023-08-08T07:53:53;17.90;99.90
2100;DHT22;1055;48.854;9.302;2023-08-08T07:56:19;18.10;99.90
2100;DHT22;1055;48.854;9.302;2023-08-08T07:58:44;18.20;99.90
2100;DHT22;1055;48.854;9.302;2023-08-08T08:01:10;18.30;99.90
2100;DHT22;1055;48.854;9.302;2023-08-08T08:03:37;18.30;99.90
2100;DHT22;1055;48.854;9.302;2023-08-08T08:06:02;18.40;99.90
2100;DHT22;1055;48.854;9.302;2023-08-08T08:08:28;18.50;99.90
2100;DHT22;1055;48.854;9.302;2023-08-08T08:10:54;18.60;99.90
2100;DHT22;1055;48.854;9.302;2023-08-08T08:13:19;18.60;99.90
2100;DHT22;1055;48.854;9.302;2023-08-08T08:15:45;18.60;99.90
2100;DHT22;1055;48.854;9.302;2023-08-08T08:18:11;18.60;99.90
2100;DHT22;1055;48.854;9.302;2023-08-08T08:20:38;18.80;99.90
2100;DHT22;1055;48.854;9.302;2023-08-08T08:23:04;19.00;99.90
2100;DHT22;1055;48.854;9.302;2023-08-08T08:25:30;19.10;99.90
2100;DHT22;1055;48.854;9.302;2023-08-08T08:27:57;18.90;99.90
2100;DHT22;1055;48.854;9.302;2023-08-08T08:30:23;18.80;99.90
2100;DHT22;1055;48.854;9.302;2023-08-08T08:32:52;18.70;99.90
2100;DHT22;1055;48.854;9.302;2023-08-08T08:35:18;18.80;99.90
2100;DHT22;1055;48.854;9.302;2023-08-08T08:37:44;18.80;99.90
2100;DHT22;1055;48.854;9.302;2023-08-08T08:40:10;18.90;99.90
2100;DHT22;1055;48.854;9.302;2023-08-08T08:42:35;18.80;99.90
2100;DHT22;1055;48.854;9.302;2023-08-08T08:45:03;18.80;99.90
2100;DHT22;1055;48.854;9.302;2023-08-08T08:47:31;18.70;99.90
2100;DHT22;1055;48.854;9.302;2023-08-08T08:49:57;18.90;99.90
2100;DHT22;1055;48.854;9.302;2023-08-08T08:52:23;18.80;99.90
2100;DHT22;1055;48.854;9.302;2023-08-08T08:54:52;18.80;99.90
2100;DHT22;1055;48.854;9.302;2023-08-08T08:57:18;18.90;99.90
2100;DHT22;1055;48.854;9.302;2023-08-08T08:59:45;19.00;99.90
2100;DHT22;1055;48.854;9.302;2023-08-08T09:02:11;19.10;99.90
2100;DHT22;1055;48.854;9.302;2023-08-08T09:04:37;19.10;99.90
2100;DHT22;1055;48.854;9.302;2023-08-08T09:07:05;19.10;99.90
2100;DHT22;1055;48.854;9.302;2023-08-08T09:09:32;19.20;99.90
2100;DHT22;1055;48.854;9.302;2023-08-08T09:11:58;19.30;99.90
2100;DHT22;1055;48.854;9.302;2023-08-08T09:14:25;19.40;99.90
2100;DHT22;1055;48.854;9.302;2023-08-08T09:16:52;19.50;99.90
2100;DHT22;1055;48.854;9.302;2023-08-08T09:19:19;19.60;99.90
2100;DHT22;1055;48.854;9.302;2023-08-08T09:21:49;19.50;99.90
2100;DHT22;1055;48.854;9.302;2023-08-08T09:24:15;19.60;99.90
2100;DHT22;1055;48.854;9.302;2023-08-08T09:26:41;19.70;99.90
2100;DHT22;1055;48.854;9.302;2023-08-08T09:29:08;19.80;99.90
2100;DHT22;1055;48.854;9.302;2023-08-08T09:31:37;19.70;99.90
2100;DHT22;1055;48.854;9.302;2023-08-08T09:34:03;19.80;99.90
2100;DHT22;1055;48.854;9.302;2023-08-08T09:36:29;19.50;99.90
2100;DHT22;1055;48.854;9.302;2023-08-08T09:38:56;19.50;99.90
2100;DHT22;1055;48.854;9.302;2023-08-08T09:41:23;19.60;99.90
2100;DHT22;1055;48.854;9.302;2023-08-08T09:43:49;19.60;99.90
2100;DHT22;1055;48.854;9.302;2023-08-08T09:46:15;19.50;99.90
2100;DHT22;1055;48.854;9.302;2023-08-08T09:48:42;19.50;99.90
2100;DHT22;1055;48.854;9.302;2023-08-08T09:51:08;19.40;99.90
2100;DHT22;1055;48.854;9.302;2023-08-08T09:53:35;19.60;99.90
2100;DHT22;1055;48.854;9.302;2023-08-08T09:56:03;19.70;99.90
2100;DHT22;1055;48.854;9.302;2023-08-08T09:58:29;19.80;99.90
2100;DHT22;1055;48.854;9.302;2023-08-08T10:00:54;20.00;99.90
2100;DHT22;1055;48.854;9.302;2023-08-08T10:03:20;20.10;99.90
2100;DHT22;1055;48.854;9.302;2023-08-08T10:05:46;20.20;99.90
2100;DHT22;1055;48.854;9.302;2023-08-08T10:08:15;20.40;99.90
2100;DHT22;1055;48.854;9.302;2023-08-08T10:10:42;20.50;99.90
2100;DHT22;1055;48.854;9.302;2023-08-08T10:13:18;20.50;99.60
2100;DHT22;1055;48.854;9.302;2023-08-08T10:15:44;20.60;99.90
2100;DHT22;1055;48.854;9.302;2023-08-08T10:18:10;20.50;98.50
2100;DHT22;1055;48.854;9.302;2023-08-08T10:20:38;20.80;99.90
2100;DHT22;1055;48.854;9.302;2023-08-08T10:23:03;21.00;98.00
2100;DHT22;1055;48.854;9.302;2023-08-08T10:25:31;20.90;96.20
2100;DHT22;1055;48.854;9.302;2023-08-08T10:28:12;20.80;95.60
2100;DHT22;1055;48.854;9.302;2023-08-08T10:33:26;20.80;95.30
2100;DHT22;1055;48.854;9.302;2023-08-08T10:36:01;20.90;94.10
2100;DHT22;1055;48.854;9.302;2023-08-08T10:38:45;20.90;94.30
2100;DHT22;1055;48.854;9.302;2023-08-08T10:41:17;20.90;93.80
2100;DHT22;1055;48.854;9.302;2023-08-08T10:43:53;21.10;93.50
2100;DHT22;1055;48.854;9.302;2023-08-08T10:46:31;20.90;91.00
2100;DHT22;1055;48.854;9.302;2023-08-08T10:49:01;20.80;91.40
2100;DHT22;1055;48.854;9.302;2023-08-08T10:51:41;20.80;90.90
2100;DHT22;1055;48.854;9.302;2023-08-08T10:56:39;21.10;92.40
2100;DHT22;1055;48.854;9.302;2023-08-08T10:59:14;21.00;92.30
2100;DHT22;1055;48.854;9.302;2023-08-08T11:01:41;20.90;90.70
2100;DHT22;1055;48.854;9.302;2023-08-08T11:04:07;21.10;91.80
2100;DHT22;1055;48.854;9.302;2023-08-08T11:06:34;21.40;92.70
2100;DHT22;1055;48.854;9.302;2023-08-08T11:09:01;21.30;87.70
2100;DHT22;1055;48.854;9.302;2023-08-08T11:11:28;21.30;88.80
2100;DHT22;1055;48.854;9.302;2023-08-08T11:13:53;21.20;89.50
2100;DHT22;1055;48.854;9.302;2023-08-08T11:16:19;21.50;90.30
2100;DHT22;1055;48.854;9.302;2023-08-08T11:18:45;21.70;86.70
2100;DHT22;1055;48.854;9.302;2023-08-08T11:21:11;21.60;87.00
2100;DHT22;1055;48.854;9.302;2023-08-08T11:23:37;21.60;89.20
2100;DHT22;1055;48.854;9.302;2023-08-08T11:26:04;21.80;90.50
2100;DHT22;1055;48.854;9.302;2023-08-08T11:28:30;21.90;87.30
2100;DHT22;1055;48.854;9.302;2023-08-08T11:30:55;21.90;88.50
2100;DHT22;1055;48.854;9.302;2023-08-08T11:33:21;21.90;86.80
2100;DHT22;1055;48.854;9.302;2023-08-08T11:35:49;21.70;86.20
2100;DHT22;1055;48.854;9.302;2023-08-08T11:38:16;21.60;86.60
2100;DHT22;1055;48.854;9.302;2023-08-08T11:40:42;21.40;86.80
2100;DHT22;1055;48.854;9.302;2023-08-08T11:43:08;21.50;86.30
2100;DHT22;1055;48.854;9.302;2023-08-08T11:45:34;21.60;87.60
2100;DHT22;1055;48.854;9.302;2023-08-08T11:48:00;21.80;90.00
2100;DHT22;1055;48.854;9.302;2023-08-08T11:50:27;21.80;86.40
2100;DHT22;1055;48.854;9.302;2023-08-08T11:52:54;21.90;88.30
2100;DHT22;1055;48.854;9.302;2023-08-08T11:55:21;22.00;88.20
2100;DHT22;1055;48.854;9.302;2023-08-08T11:57:54;21.80;85.90
2100;DHT22;1055;48.854;9.302;2023-08-08T12:00:27;22.00;85.80
2100;DHT22;1055;48.854;9.302;2023-08-08T12:02:53;22.10;86.70
2100;DHT22;1055;48.854;9.302;2023-08-08T12:05:21;22.00;83.10
2100;DHT22;1055;48.854;9.302;2023-08-08T12:07:48;22.10;85.30
2100;DHT22;1055;48.854;9.302;2023-08-08T12:10:20;22.20;82.80
2100;DHT22;1055;48.854;9.302;2023-08-08T12:12:46;21.90;80.90
2100;DHT22;1055;48.854;9.302;2023-08-08T12:15:12;21.90;82.70
2100;DHT22;1055;48.854;9.302;2023-08-08T12:17:39;22.00;82.80
2100;DHT22;1055;48.854;9.302;2023-08-08T12:20:06;21.80;83.70
2100;DHT22;1055;48.854;9.302;2023-08-08T12:22:32;21.70;85.90
2100;DHT22;1055;48.854;9.302;2023-08-08T12:24:58;21.90;87.70
2100;DHT22;1055;48.854;9.302;2023-08-08T12:27:23;22.10;84.50
2100;DHT22;1055;48.854;9.302;2023-08-08T12:29:49;22.20;85.80
2100;DHT22;1055;48.854;9.302;2023-08-08T12:32:14;22.10;83.30
2100;DHT22;1055;48.854;9.302;2023-08-08T12:34:40;22.20;82.90
2100;DHT22;1055;48.854;9.302;2023-08-08T12:37:06;22.00;81.70
2100;DHT22;1055;48.854;9.302;2023-08-08T12:39:32;22.20;82.70
2100;DHT22;1055;48.854;9.302;2023-08-08T12:41:57;22.20;79.30
2100;DHT22;1055;48.854;9.302;2023-08-08T12:44:23;22.30;81.00
2100;DHT22;1055;48.854;9.302;2023-08-08T12:46:49;22.10;79.20
2100;DHT22;1055;48.854;9.302;2023-08-08T12:49:14;22.10;81.50
2100;DHT22;1055;48.854;9.302;2023-08-08T12:51:40;22.30;82.40
2100;DHT22;1055;48.854;9.302;2023-08-08T12:54:06;22.50;82.30
2100;DHT22;1055;48.854;9.302;2023-08-08T12:56:31;22.70;83.10
2100;DHT22;1055;48.854;9.302;2023-08-08T12:58:57;22.80;82.00
2100;DHT22;1055;48.854;9.302;2023-08-08T13:01:23;22.80;81.80
2100;DHT22;1055;48.854;9.302;2023-08-08T13:03:50;22.70;79.70
2100;DHT22;1055;48.854;9.302;2023-08-08T13:06:16;22.80;80.00
2100;DHT22;1055;48.854;9.302;2023-08-08T13:08:42;23.10;81.60
2100;DHT22;1055;48.854;9.302;2023-08-08T13:11:08;23.20;79.70
2100;DHT22;1055;48.854;9.302;2023-08-08T13:13:33;23.30;80.50
2100;DHT22;1055;48.854;9.302;2023-08-08T13:15:59;23.30;79.80
2100;DHT22;1055;48.854;9.302;2023-08-08T13:18:25;23.30;81.50
2100;DHT22;1055;48.854;9.302;2023-08-08T13:20:50;23.40;80.80
2100;DHT22;1055;48.854;9.302;2023-08-08T13:23:16;23.30;83.40
2100;DHT22;1055;48.854;9.302;2023-08-08T13:25:41;23.20;82.90
2100;DHT22;1055;48.854;9.302;2023-08-08T13:28:08;23.10;81.60
2100;DHT22;1055;48.854;9.302;2023-08-08T13:30:34;23.20;83.20
2100;DHT22;1055;48.854;9.302;2023-08-08T13:33:00;23.10;81.50
2100;DHT22;1055;48.854;9.302;2023-08-08T13:35:26;22.90;81.20
2100;DHT22;1055;48.854;9.302;2023-08-08T13:37:52;23.00;81.70
2100;DHT22;1055;48.854;9.302;2023-08-08T13:40:20;22.90;81.80
2100;DHT22;1055;48.854;9.302;2023-08-08T13:42:46;22.50;81.60
2100;DHT22;1055;48.854;9.302;2023-08-08T13:45:18;22.50;83.80
2100;DHT22;1055;48.854;9.302;2023-08-08T13:47:44;22.70;84.90
2100;DHT22;1055;48.854;9.302;2023-08-08T13:50:10;23.20;86.20
2100;DHT22;1055;48.854;9.302;2023-08-08T13:52:39;23.40;83.50
2100;DHT22;1055;48.854;9.302;2023-08-08T13:55:05;23.60;78.60
2100;DHT22;1055;48.854;9.302;2023-08-08T13:57:31;23.70;75.70
2100;DHT22;1055;48.854;9.302;2023-08-08T13:59:56;23.30;75.50
2100;DHT22;1055;48.854;9.302;2023-08-08T14:02:22;23.50;78.50
2100;DHT22;1055;48.854;9.302;2023-08-08T14:04:48;23.60;79.30
2100;DHT22;1055;48.854;9.302;2023-08-08T14:07:17;23.30;76.60
2100;DHT22;1055;48.854;9.302;2023-08-08T14:09:43;23.20;79.80
2100;DHT22;1055;48.854;9.302;2023-08-08T14:12:10;23.40;78.20
2100;DHT22;1055;48.854;9.302;2023-08-08T14:14:37;23.80;79.40
2100;DHT22;1055;48.854;9.302;2023-08-08T14:17:03;23.90;78.20
2100;DHT22;1055;48.854;9.302;2023-08-08T14:19:29;24.00;78.20
2100;DHT22;1055;48.854;9.302;2023-08-08T14:21:55;24.10;77.10
2100;DHT22;1055;48.854;9.302;2023-08-08T14:24:20;24.00;77.40
2100;DHT22;1055;48.854;9.302;2023-08-08T14:26:46;23.70;76.00
2100;DHT22;1055;48.854;9.302;2023-08-08T14:29:12;23.30;77.60
2100;DHT22;1055;48.854;9.302;2023-08-08T14:31:38;22.90;78.10
2100;DHT22;1055;48.854;9.302;2023-08-08T14:34:04;22.80;78.40
2100;DHT22;1055;48.854;9.302;2023-08-08T14:36:30;22.90;79.80
2100;DHT22;1055;48.854;9.302;2023-08-08T14:38:55;23.10;79.50
2100;DHT22;1055;48.854;9.302;2023-08-08T14:41:21;22.80;79.80
2100;DHT22;1055;48.854;9.302;2023-08-08T14:43:47;22.90;82.00
2100;DHT22;1055;48.854;9.302;2023-08-08T14:46:12;23.20;80.60
2100;DHT22;1055;48.854;9.302;2023-08-08T14:48:38;23.50;81.20
2100;DHT22;1055;48.854;9.302;2023-08-08T14:51:04;23.50;78.60
2100;DHT22;1055;48.854;9.302;2023-08-08T14:53:29;23.10;79.20
2100;DHT22;1055;48.854;9.302;2023-08-08T14:55:55;23.30;80.70
2100;DHT22;1055;48.854;9.302;2023-08-08T14:58:21;23.20;81.30
2100;DHT22;1055;48.854;9.302;2023-08-08T15:00:46;22.70;81.00
2100;DHT22;1055;48.854;9.302;2023-08-08T15:03:14;22.40;82.20
2100;DHT22;1055;48.854;9.302;2023-08-08T15:05:40;22.10;83.00
2100;DHT22;1055;48.854;9.302;2023-08-08T15:08:06;21.80;83.50
2100;DHT22;1055;48.854;9.302;2023-08-08T15:10:32;21.80;85.70
2100;DHT22;1055;48.854;9.302;2023-08-08T15:12:57;21.90;85.30
2100;DHT22;1055;48.854;9.302;2023-08-08T15:15:23;21.70;85.70
2100;DHT22;1055;48.854;9.302;2023-08-08T15:17:51;21.70;86.70
2100;DHT22;1055;48.854;9.302;2023-08-08T15:20:17;21.60;87.50
2100;DHT22;1055;48.854;9.302;2023-08-08T15:22:42;21.60;88.40
2100;DHT22;1055;48.854;9.302;2023-08-08T15:25:08;21.50;89.40
2100;DHT22;1055;48.854;9.302;2023-08-08T15:27:34;21.50;90.00
2100;DHT22;1055;48.854;9.302;2023-08-08T15:30:00;21.50;90.30
2100;DHT22;1055;48.854;9.302;2023-08-08T15:32:26;21.60;90.20
2100;DHT22;1055;48.854;9.302;2023-08-08T15:34:51;21.80;90.70
2100;DHT22;1055;48.854;9.302;2023-08-08T15:37:17;22.00;91.00
2100;DHT22;1055;48.854;9.302;2023-08-08T15:39:42;22.20;90.20
2100;DHT22;1055;48.854;9.302;2023-08-08T15:42:08;22.20;89.20
2100;DHT22;1055;48.854;9.302;2023-08-08T15:44:34;22.10;89.70
2100;DHT22;1055;48.854;9.302;2023-08-08T15:46:59;22.10;87.10
2100;DHT22;1055;48.854;9.302;2023-08-08T15:49:25;21.80;87.90
2100;DHT22;1055;48.854;9.302;2023-08-08T15:51:50;21.70;88.40
2100;DHT22;1055;48.854;9.302;2023-08-08T15:54:17;21.70;89.30
2100;DHT22;1055;48.854;9.302;2023-08-08T15:56:43;21.70;89.90
2100;DHT22;1055;48.854;9.302;2023-08-08T15:59:08;21.60;90.40
2100;DHT22;1055;48.854;9.302;2023-08-08T16:01:34;21.60;90.50